Dakhla, Dakhla Airport (GMMH)

NameDakhla Airport
CityDakhla
CountryWestern Sahara
ICAOGMMH
IATAVIL
Altitude11 m
CoordinatesGoogle Map
Live Air TrafficLiveATC.net
METARGMMH 021045Z 09012KT 1200 DU NSC 17/M02 Q1023 NOSIG
2020-01-02 10:45:00 Wind: East (90°) 6.17 m/s - Visibility: 1200 m - Weather: Widespread dust - Temperature: 17 °C - Dew point: -2 °C - Humidity: 27.4% - Pressure: 1023 hPa

Sorry, no flights used the airport in this database.